createdAt,value
2018-02-16T00:00:12.693Z,34.72
2018-02-16T00:02:40.306Z,34.70
2018-02-16T00:05:07.877Z,35.97
2018-02-16T00:07:35.486Z,39.42
2018-02-16T00:10:03.116Z,40.00
2018-02-16T00:12:31.013Z,41.92
2018-02-16T00:14:58.578Z,41.22
2018-02-16T00:17:26.216Z,39.60
2018-02-16T00:19:53.823Z,38.28
2018-02-16T00:22:22.182Z,38.80
2018-02-16T00:24:49.786Z,42.28
2018-02-16T00:27:17.398Z,41.60
2018-02-16T00:29:45.015Z,41.97
2018-02-16T00:32:13.340Z,39.85
2018-02-16T00:34:40.970Z,36.78
2018-02-16T00:37:08.584Z,38.00
2018-02-16T00:39:36.948Z,38.90
2018-02-16T00:42:05.291Z,37.65
2018-02-16T00:44:32.878Z,33.65
2018-02-16T00:47:00.487Z,35.03
2018-02-16T00:49:28.882Z,32.22
2018-02-16T00:51:56.447Z,31.37
2018-02-16T00:54:24.010Z,32.38
2018-02-16T00:56:51.570Z,32.88
2018-02-16T00:59:19.178Z,30.92
2018-02-16T01:01:47.522Z,28.85
2018-02-16T01:04:15.133Z,30.60
2018-02-16T01:06:42.691Z,30.25
2018-02-16T01:09:10.336Z,32.03
2018-02-16T01:11:38.668Z,32.45
2018-02-16T01:14:06.278Z,31.67
2018-02-16T01:16:34.630Z,31.00
2018-02-16T01:19:02.230Z,32.20
2018-02-16T01:21:29.830Z,31.52
2018-02-16T01:23:57.510Z,34.28
2018-02-16T01:26:25.110Z,36.00
2018-02-16T01:28:52.723Z,33.53
2018-02-16T01:31:20.354Z,34.35
2018-02-16T01:33:48.740Z,33.05
2018-02-16T01:36:16.312Z,37.10
2018-02-16T01:38:43.897Z,37.78
2018-02-16T01:41:11.530Z,36.30
2018-02-16T01:43:39.131Z,35.10
2018-02-16T01:46:07.523Z,33.65
2018-02-16T01:48:35.142Z,33.40
2018-02-16T01:51:02.766Z,31.85
2018-02-16T01:53:30.338Z,34.10
2018-02-16T01:55:57.944Z,33.92
2018-02-16T01:58:26.264Z,34.10
2018-02-16T02:00:53.835Z,30.88
2018-02-16T02:03:21.396Z,32.53
2018-02-16T02:05:48.997Z,34.38
2018-02-16T02:08:17.402Z,32.30
2018-02-16T02:10:45.030Z,31.08
2018-02-16T02:13:12.622Z,29.65
2018-02-16T02:18:35.986Z,27.17
2018-02-16T02:21:04.306Z,25.50
2018-02-16T02:23:31.907Z,26.75
2018-02-16T02:25:59.506Z,27.05
2018-02-16T02:28:27.098Z,25.12
2018-02-16T02:30:54.747Z,27.52
2018-02-16T02:33:22.350Z,28.02
2018-02-16T02:35:49.911Z,29.52
2018-02-16T02:38:17.514Z,28.75
2018-02-16T02:40:45.119Z,28.95
2018-02-16T02:43:12.699Z,27.10
2018-02-16T02:45:41.085Z,29.17
2018-02-16T02:48:09.417Z,27.13
2018-02-16T02:50:36.992Z,25.30
2018-02-16T02:53:04.598Z,23.00
2018-02-16T02:55:32.168Z,22.60
2018-02-16T02:57:59.750Z,24.50
2018-02-16T03:00:27.331Z,24.77
2018-02-16T03:02:54.894Z,23.33
2018-02-16T03:05:22.487Z,21.35
2018-02-16T03:07:50.075Z,20.80
2018-02-16T03:10:17.659Z,20.73
2018-02-16T03:12:45.294Z,21.17
2018-02-16T03:15:12.892Z,20.80
2018-02-16T03:17:40.458Z,20.90
2018-02-16T03:20:08.059Z,22.20
2018-02-16T03:22:35.685Z,21.23
2018-02-16T03:25:03.263Z,21.08
2018-02-16T03:27:31.593Z,20.25
2018-02-16T03:29:59.210Z,20.85
2018-02-16T03:32:27.535Z,17.75
2018-02-16T03:34:55.117Z,15.93
2018-02-16T03:37:22.734Z,15.90
2018-02-16T03:39:50.326Z,15.80
2018-02-16T03:42:17.942Z,14.98
2018-02-16T03:44:45.542Z,11.85
2018-02-16T03:47:13.171Z,13.65
2018-02-16T03:49:43.635Z,11.80
2018-02-16T03:52:11.246Z,11.15
2018-02-16T03:54:38.805Z,11.90
2018-02-16T03:57:06.389Z,11.88
2018-02-16T03:59:33.987Z,9.90
2018-02-16T04:02:01.584Z,8.68
2018-02-16T04:04:29.168Z,9.10
2018-02-16T04:06:56.738Z,9.07
2018-02-16T04:09:24.631Z,8.10
2018-02-16T04:11:52.193Z,7.93
2018-02-16T04:14:19.834Z,7.22
2018-02-16T04:16:47.407Z,7.72
2018-02-16T04:19:15.014Z,7.12
2018-02-16T04:21:42.609Z,7.20
2018-02-16T04:24:10.223Z,5.25
2018-02-16T04:26:37.846Z,6.45
2018-02-16T04:29:05.464Z,5.65
2018-02-16T04:31:33.064Z,6.43
2018-02-16T04:34:00.633Z,5.45
2018-02-16T04:36:28.239Z,6.10
2018-02-16T04:38:55.798Z,5.45
2018-02-16T04:41:23.331Z,6.20
2018-02-16T04:43:51.694Z,6.50
2018-02-16T04:46:19.302Z,7.60
2018-02-16T04:48:46.898Z,10.60
2018-02-16T04:51:14.541Z,12.20
2018-02-16T04:53:42.141Z,14.35
2018-02-16T04:56:09.778Z,15.85
2018-02-16T04:58:37.407Z,16.33
2018-02-16T05:01:05.023Z,16.77
2018-02-16T05:03:32.605Z,14.50
2018-02-16T05:06:00.158Z,15.23
2018-02-16T05:08:28.502Z,14.27
2018-02-16T05:10:56.111Z,15.18
2018-02-16T05:13:23.672Z,17.35
2018-02-16T05:15:51.269Z,18.67
2018-02-16T05:18:18.818Z,17.42
2018-02-16T05:20:48.098Z,16.85
2018-02-16T05:23:15.693Z,17.27
2018-02-16T05:25:43.326Z,17.52
2018-02-16T05:28:19.083Z,18.80
2018-02-16T05:30:46.667Z,16.92
2018-02-16T05:33:14.230Z,17.58
2018-02-16T05:35:41.817Z,18.58
2018-02-16T05:38:10.216Z,17.65
2018-02-16T05:40:37.824Z,19.15
2018-02-16T05:43:05.422Z,15.75
2018-02-16T05:45:33.786Z,18.40
2018-02-16T05:48:01.396Z,16.80
2018-02-16T05:50:28.983Z,19.48
2018-02-16T05:52:56.591Z,20.50
2018-02-16T05:55:24.213Z,18.12
2018-02-16T05:57:51.810Z,21.75
2018-02-16T06:00:19.375Z,19.48
2018-02-16T06:02:46.978Z,18.58
2018-02-16T06:05:14.606Z,15.68
2018-02-16T06:07:42.175Z,15.27
2018-02-16T06:10:09.745Z,15.75
2018-02-16T06:12:37.314Z,14.90
2018-02-16T06:15:04.902Z,12.90
2018-02-16T06:17:32.495Z,13.62
2018-02-16T06:20:00.072Z,15.77
2018-02-16T06:22:27.819Z,14.52
2018-02-16T06:24:55.406Z,9.93
2018-02-16T06:27:23.819Z,10.02
2018-02-16T06:29:51.370Z,8.07
2018-02-16T06:32:18.955Z,6.40
2018-02-16T06:34:47.289Z,5.75
2018-02-16T06:37:14.904Z,6.72
2018-02-16T06:39:43.262Z,6.40
2018-02-16T06:42:10.895Z,5.95
2018-02-16T06:44:38.499Z,4.85
2018-02-16T06:47:06.863Z,5.18
2018-02-16T06:49:34.455Z,4.60
2018-02-16T06:52:02.026Z,5.40
2018-02-16T06:54:29.624Z,4.75
2018-02-16T06:56:57.215Z,4.68
2018-02-16T06:59:25.545Z,4.15
2018-02-16T07:01:53.171Z,5.80
2018-02-16T07:04:20.762Z,5.90
2018-02-16T07:06:48.314Z,6.93
2018-02-16T07:09:15.886Z,7.05
2018-02-16T07:11:43.517Z,8.02
2018-02-16T07:14:11.095Z,7.50
2018-02-16T07:16:38.722Z,10.95
2018-02-16T07:19:06.298Z,15.45
2018-02-16T07:21:33.893Z,15.18
2018-02-16T07:24:16.848Z,13.50
2018-02-16T07:26:45.209Z,11.73
2018-02-16T07:29:12.821Z,12.07
2018-02-16T07:31:40.379Z,13.60
2018-02-16T07:34:07.989Z,16.83
2018-02-16T07:36:35.578Z,17.85
2018-02-16T07:39:03.901Z,26.50
2018-02-16T07:41:31.530Z,24.23
2018-02-16T07:43:59.130Z,19.33
2018-02-16T07:46:26.694Z,19.48
2018-02-16T07:48:54.323Z,23.70
2018-02-16T07:51:21.943Z,19.77
2018-02-16T07:53:50.307Z,16.75
2018-02-16T07:56:17.900Z,15.25
2018-02-16T07:58:45.491Z,16.02
2018-02-16T08:01:13.074Z,14.95
2018-02-16T08:03:40.711Z,12.15
2018-02-16T08:06:08.280Z,12.70
2018-02-16T08:08:35.850Z,10.85
2018-02-16T08:11:03.438Z,10.63
2018-02-16T08:13:31.039Z,9.98
2018-02-16T08:15:59.415Z,16.65
2018-02-16T08:18:26.994Z,11.50
2018-02-16T08:20:54.586Z,8.98
2018-02-16T08:23:22.180Z,9.27
2018-02-16T08:25:49.759Z,9.70
2018-02-16T08:28:17.324Z,8.45
2018-02-16T08:30:45.706Z,9.32
2018-02-16T08:33:13.294Z,9.95
2018-02-16T08:35:40.890Z,10.60
2018-02-16T08:38:08.472Z,10.73
2018-02-16T08:40:36.074Z,12.05
2018-02-16T08:43:03.655Z,9.80
2018-02-16T08:45:32.012Z,8.57
2018-02-16T08:47:59.614Z,9.95
2018-02-16T08:50:27.235Z,8.65
2018-02-16T08:52:54.855Z,9.10
2018-02-16T08:55:22.444Z,9.18
2018-02-16T08:57:50.004Z,10.50
2018-02-16T09:00:17.635Z,9.57
2018-02-16T09:02:45.207Z,8.80
2018-02-16T09:05:12.796Z,8.18
2018-02-16T09:07:40.365Z,7.37
2018-02-16T09:10:08.765Z,7.70
2018-02-16T09:12:36.363Z,8.05
2018-02-16T09:15:03.947Z,11.40
2018-02-16T09:17:31.551Z,8.70
2018-02-16T09:19:59.172Z,7.90
2018-02-16T09:25:00.895Z,9.95
2018-02-16T09:27:28.500Z,11.55
2018-02-16T09:29:56.147Z,11.12
2018-02-16T09:32:23.734Z,11.65
2018-02-16T09:34:52.109Z,14.20
2018-02-16T09:37:19.774Z,13.82
2018-02-16T09:39:48.982Z,16.05
2018-02-16T09:42:17.378Z,18.67
2018-02-16T09:44:44.990Z,13.50
2018-02-16T09:47:12.654Z,13.95
2018-02-16T09:49:40.251Z,11.23
2018-02-16T09:52:07.838Z,11.95
2018-02-16T09:54:35.460Z,11.10
2018-02-16T09:57:03.832Z,12.82
2018-02-16T09:59:31.402Z,13.88
2018-02-16T10:01:59.754Z,14.18
2018-02-16T10:04:27.398Z,10.93
2018-02-16T10:06:54.961Z,10.07
2018-02-16T10:09:22.518Z,9.13
2018-02-16T10:11:50.099Z,7.40
2018-02-16T10:14:17.695Z,7.30
2018-02-16T10:16:45.309Z,6.20
2018-02-16T10:19:12.965Z,5.80
2018-02-16T10:21:40.576Z,8.30
2018-02-16T10:24:08.179Z,7.40
2018-02-16T10:26:35.834Z,7.03
2018-02-16T10:29:03.407Z,6.57
2018-02-16T10:31:31.048Z,8.30
2018-02-16T10:33:58.646Z,6.95
2018-02-16T10:36:26.238Z,5.82
2018-02-16T10:38:54.586Z,5.87
2018-02-16T10:41:22.198Z,5.30
2018-02-16T10:43:49.802Z,4.23
2018-02-16T10:46:17.403Z,4.63
2018-02-16T10:48:45.012Z,4.67
2018-02-16T10:51:12.582Z,6.10
2018-02-16T10:53:40.190Z,5.30
2018-02-16T10:56:07.747Z,4.10
2018-02-16T10:58:42.190Z,3.07
2018-02-16T11:01:15.435Z,3.60
2018-02-16T11:03:43.014Z,3.40
2018-02-16T11:06:12.568Z,3.30
2018-02-16T11:08:45.798Z,2.57
2018-02-16T11:11:14.166Z,3.00
2018-02-16T11:13:42.478Z,3.97
2018-02-16T11:16:10.110Z,4.83
2018-02-16T11:18:38.430Z,3.20
2018-02-16T11:21:06.090Z,2.70
2018-02-16T11:23:33.728Z,2.90
2018-02-16T11:26:01.332Z,4.17
2018-02-16T11:28:28.890Z,3.40
2018-02-16T11:30:56.436Z,2.57
2018-02-16T11:33:24.038Z,3.27
2018-02-16T11:35:51.662Z,3.47
2018-02-16T11:38:19.224Z,3.67
2018-02-16T11:40:46.764Z,3.77
2018-02-16T11:43:14.337Z,4.50
2018-02-16T11:45:41.901Z,4.30
2018-02-16T11:48:09.498Z,4.77
2018-02-16T11:51:52.813Z,4.00
2018-02-16T11:54:20.427Z,3.80
2018-02-16T11:56:54.916Z,4.00
2018-02-16T11:59:28.711Z,4.17
2018-02-16T12:01:56.271Z,4.20
2018-02-16T12:04:23.876Z,4.67
2018-02-16T12:06:51.432Z,4.30
2018-02-16T12:09:18.996Z,4.40
2018-02-16T12:11:46.572Z,4.60
2018-02-16T12:14:14.977Z,3.77
2018-02-16T12:16:46.157Z,3.97
2018-02-16T12:19:14.531Z,3.60
2018-02-16T12:21:42.862Z,4.00
2018-02-16T12:24:10.483Z,3.30
2018-02-16T12:26:38.071Z,5.70
2018-02-16T12:29:05.692Z,5.80
2018-02-16T12:31:34.080Z,6.17
2018-02-16T12:34:01.676Z,9.30
2018-02-16T12:36:29.258Z,5.63
2018-02-16T12:38:56.814Z,3.33
2018-02-16T12:41:24.426Z,3.53
2018-02-16T12:43:52.030Z,5.60
2018-02-16T12:46:19.641Z,5.10
2018-02-16T12:48:47.199Z,5.70
2018-02-16T12:51:14.780Z,3.90
2018-02-16T12:53:42.415Z,4.60
2018-02-16T12:56:10.811Z,4.50
2018-02-16T12:58:38.396Z,4.20
2018-02-16T13:01:05.973Z,4.30
2018-02-16T13:03:33.562Z,5.37
2018-02-16T13:06:01.991Z,4.13
2018-02-16T13:08:29.610Z,4.70
2018-02-16T13:10:58.015Z,4.77
2018-02-16T13:13:25.897Z,4.40
2018-02-16T13:15:53.470Z,4.20
2018-02-16T13:18:21.060Z,4.03
2018-02-16T13:20:48.691Z,4.10
2018-02-16T13:23:16.283Z,4.20
2018-02-16T13:25:43.914Z,4.00
2018-02-16T13:28:11.512Z,4.40
2018-02-16T13:30:39.889Z,4.17
2018-02-16T13:33:08.370Z,4.40
2018-02-16T13:35:36.714Z,4.00
2018-02-16T13:38:04.362Z,3.60
2018-02-16T13:40:31.910Z,3.50
2018-02-16T13:42:59.502Z,4.07
2018-02-16T13:45:27.198Z,3.77
2018-02-16T13:47:55.591Z,3.70
2018-02-16T13:50:23.222Z,3.50
2018-02-16T13:52:50.806Z,3.23
2018-02-16T13:55:18.396Z,3.30
2018-02-16T13:57:46.003Z,3.50
2018-02-16T14:00:13.620Z,2.90
2018-02-16T14:02:41.186Z,3.60
2018-02-16T14:05:08.762Z,2.60
2018-02-16T14:07:36.343Z,3.10
2018-02-16T14:10:03.926Z,3.20
2018-02-16T14:12:31.521Z,3.50
2018-02-16T14:14:59.131Z,3.17
2018-02-16T14:17:27.456Z,2.93
2018-02-16T14:19:55.052Z,3.20
2018-02-16T14:22:22.664Z,3.10
2018-02-16T14:24:50.292Z,2.87
2018-02-16T14:27:18.721Z,2.63
2018-02-16T14:29:46.281Z,2.50
2018-02-16T14:32:13.878Z,2.47
2018-02-16T14:34:41.444Z,2.37
2018-02-16T14:37:09.073Z,2.17
2018-02-16T14:39:36.637Z,1.97
2018-02-16T14:42:04.194Z,2.13
2018-02-16T14:44:32.709Z,1.80
2018-02-16T14:47:01.051Z,3.20
2018-02-16T14:49:28.658Z,2.87
2018-02-16T14:51:57.048Z,3.43
2018-02-16T14:54:24.647Z,3.90
2018-02-16T14:56:52.215Z,4.20
2018-02-16T14:59:19.819Z,4.90
2018-02-16T15:01:48.152Z,5.23
2018-02-16T15:04:15.791Z,4.80
2018-02-16T15:06:43.423Z,5.07
2018-02-16T15:09:11.030Z,5.20
2018-02-16T15:11:38.592Z,5.50
2018-02-16T15:14:06.194Z,5.60
2018-02-16T15:16:33.777Z,5.87
2018-02-16T15:19:01.320Z,4.93
2018-02-16T15:21:28.924Z,5.60
2018-02-16T15:23:56.526Z,6.00
2018-02-16T15:26:24.124Z,5.55
2018-02-16T15:28:51.743Z,6.00
2018-02-16T15:31:20.082Z,6.33
2018-02-16T15:33:47.675Z,5.20
2018-02-16T15:36:16.043Z,5.50
2018-02-16T15:38:43.654Z,5.90
2018-02-16T15:41:11.270Z,5.30
2018-02-16T15:43:39.638Z,5.75
2018-02-16T15:46:07.238Z,5.62
2018-02-16T15:48:34.831Z,5.50
2018-02-16T15:51:02.439Z,5.68
2018-02-16T15:53:30.805Z,6.07
2018-02-16T15:55:59.206Z,5.93
2018-02-16T15:58:26.779Z,7.90
2018-02-16T16:00:54.391Z,6.50
2018-02-16T16:03:21.998Z,8.27
2018-02-16T16:05:49.577Z,8.65
2018-02-16T16:08:17.956Z,7.70
2018-02-16T16:10:45.575Z,6.70
2018-02-16T16:13:13.937Z,7.50
2018-02-16T16:15:41.572Z,7.15
2018-02-16T16:18:09.223Z,8.38
2018-02-16T16:20:36.813Z,8.27
2018-02-16T16:23:04.428Z,7.90
2018-02-16T16:25:32.052Z,10.00
2018-02-16T16:28:00.426Z,10.55
2018-02-16T16:30:28.023Z,8.48
2018-02-16T16:32:55.629Z,8.32
2018-02-16T16:35:23.237Z,7.70
2018-02-16T16:37:50.846Z,8.07
2018-02-16T16:40:18.468Z,8.20
2018-02-16T16:42:46.076Z,6.55
2018-02-16T16:45:13.672Z,7.20
2018-02-16T16:47:41.255Z,8.20
2018-02-16T16:50:08.891Z,8.50
2018-02-16T16:52:36.523Z,8.95
2018-02-16T16:55:04.114Z,9.38
2018-02-16T16:57:31.703Z,8.93
2018-02-16T16:59:59.349Z,10.10
2018-02-16T17:02:26.954Z,10.18
2018-02-16T17:04:54.563Z,10.55
2018-02-16T17:07:22.922Z,9.50
2018-02-16T17:09:51.304Z,9.52
2018-02-16T17:12:19.695Z,13.38
2018-02-16T17:14:47.315Z,17.30
2018-02-16T17:17:14.939Z,13.43
2018-02-16T17:19:42.564Z,13.82
2018-02-16T17:22:11.848Z,14.23
2018-02-16T17:24:39.441Z,16.02
2018-02-16T17:27:07.036Z,16.48
2018-02-16T17:29:34.622Z,15.52
2018-02-16T17:32:02.978Z,14.30
2018-02-16T17:34:30.573Z,8.98
2018-02-16T17:36:58.910Z,7.70
2018-02-16T17:39:26.500Z,7.60
2018-02-16T17:41:54.748Z,9.10
2018-02-16T17:44:22.321Z,8.98
2018-02-16T17:46:51.438Z,12.13
2018-02-16T17:49:19.808Z,18.70
2018-02-16T17:51:47.410Z,19.30
2018-02-16T17:54:15.015Z,17.52
2018-02-16T17:56:42.598Z,14.15
2018-02-16T17:59:10.970Z,11.98
2018-02-16T18:01:38.579Z,8.13
2018-02-16T18:04:06.178Z,8.00
2018-02-16T18:06:33.785Z,8.18
2018-02-16T18:09:01.437Z,6.75
2018-02-16T18:11:29.023Z,6.82
2018-02-16T18:13:56.607Z,5.60
2018-02-16T18:16:24.187Z,5.15
2018-02-16T18:18:51.760Z,5.40
2018-02-16T18:21:20.166Z,5.75
2018-02-16T18:23:47.740Z,5.03
2018-02-16T18:26:15.344Z,6.47
2018-02-16T18:28:42.950Z,6.00
2018-02-16T18:31:10.545Z,5.82
2018-02-16T18:33:38.116Z,6.10
2018-02-16T18:36:05.722Z,7.90
2018-02-16T18:38:33.307Z,7.07
2018-02-16T18:41:00.928Z,6.18
2018-02-16T18:46:44.399Z,8.13
2018-02-16T18:49:17.681Z,20.10
2018-02-16T18:51:45.256Z,27.83
2018-02-16T18:54:12.806Z,31.90
2018-02-16T18:56:54.691Z,39.17
2018-02-16T18:59:22.287Z,41.65
2018-02-16T19:01:49.981Z,40.35
2018-02-16T19:04:17.598Z,34.38
2018-02-16T19:06:45.212Z,23.20
2018-02-16T19:09:12.810Z,18.30
2018-02-16T19:11:40.394Z,17.60
2018-02-16T19:14:07.994Z,17.12
2018-02-16T19:16:35.629Z,15.80
2018-02-16T19:19:03.211Z,15.80
2018-02-16T19:21:30.844Z,13.88
2018-02-16T19:27:01.775Z,12.27
2018-02-16T19:29:29.400Z,14.48
2018-02-16T19:31:56.995Z,15.20
2018-02-16T19:34:24.617Z,15.40
2018-02-16T19:36:52.169Z,19.65
2018-02-16T19:39:19.798Z,20.65
2018-02-16T19:41:47.414Z,19.50
2018-02-16T19:44:15.782Z,17.08
2018-02-16T19:46:44.176Z,14.90
2018-02-16T19:49:11.788Z,15.05
2018-02-16T19:51:39.418Z,14.15
2018-02-16T19:54:07.043Z,15.98
2018-02-16T19:56:35.405Z,17.52
2018-02-16T19:59:16.415Z,18.55
2018-02-16T20:01:44.011Z,20.75
2018-02-16T20:04:11.660Z,19.37
2018-02-16T20:06:39.277Z,20.75
2018-02-16T20:09:07.661Z,20.58
2018-02-16T20:11:35.984Z,18.73
2018-02-16T20:14:03.581Z,18.70
2018-02-16T20:16:31.979Z,15.20
2018-02-16T20:19:00.336Z,15.48
2018-02-16T20:21:27.995Z,14.55
2018-02-16T20:23:55.578Z,15.95
2018-02-16T20:26:23.984Z,25.58
2018-02-16T20:28:51.639Z,19.23
2018-02-16T20:31:20.006Z,19.80
2018-02-16T20:33:47.590Z,19.45
2018-02-16T20:36:15.964Z,21.08
2018-02-16T20:38:43.558Z,18.25
2018-02-16T20:41:11.186Z,20.30
2018-02-16T20:43:38.776Z,20.00
2018-02-16T20:46:06.406Z,21.25
2018-02-16T20:48:37.070Z,21.15
2018-02-16T20:51:04.724Z,22.62
2018-02-16T20:53:32.302Z,23.73
2018-02-16T20:55:59.935Z,24.10
2018-02-16T20:58:27.534Z,23.92
2018-02-16T21:00:55.154Z,23.02
2018-02-16T21:03:22.718Z,22.55
2018-02-16T21:05:50.307Z,21.37
2018-02-16T21:08:17.905Z,23.95
2018-02-16T21:10:45.586Z,23.58
2018-02-16T21:13:13.180Z,25.88
2018-02-16T21:15:40.815Z,29.08
2018-02-16T21:18:08.434Z,40.50
2018-02-16T21:20:36.831Z,45.67
2018-02-16T21:23:04.468Z,45.33
2018-02-16T21:25:32.057Z,39.97
2018-02-16T21:27:59.699Z,38.88
2018-02-16T21:30:28.051Z,39.38
2018-02-16T21:32:55.673Z,36.10
2018-02-16T21:35:23.224Z,30.35
2018-02-16T21:37:50.852Z,33.60
2018-02-16T21:40:18.468Z,33.40
2018-02-16T21:42:46.094Z,33.45
2018-02-16T21:45:13.672Z,32.78
2018-02-16T21:47:41.301Z,40.45
2018-02-16T21:50:09.655Z,41.15
2018-02-16T21:52:37.217Z,36.42
2018-02-16T21:55:04.848Z,37.88
2018-02-16T21:57:32.464Z,36.63
2018-02-16T22:00:00.065Z,36.67
2018-02-16T22:02:27.671Z,39.65
2018-02-16T22:04:56.004Z,36.65
2018-02-16T22:07:23.607Z,35.25
2018-02-16T22:09:51.993Z,35.10
2018-02-16T22:12:20.367Z,34.05
2018-02-16T22:14:48.777Z,36.17
2018-02-16T22:17:16.343Z,35.40
2018-02-16T22:19:48.936Z,37.35
2018-02-16T22:22:16.560Z,41.03
2018-02-16T22:24:44.148Z,40.38
2018-02-16T22:27:11.784Z,38.45
2018-02-16T22:29:39.387Z,37.53
2018-02-16T22:32:06.965Z,34.80
2018-02-16T22:34:34.548Z,38.85
2018-02-16T22:37:02.945Z,38.67
2018-02-16T22:39:30.597Z,40.80
2018-02-16T22:41:58.974Z,41.33
2018-02-16T22:44:26.556Z,35.47
2018-02-16T22:46:54.184Z,40.42
2018-02-16T22:49:22.533Z,40.30
2018-02-16T22:51:50.149Z,43.33
2018-02-16T22:54:17.799Z,40.72
2018-02-16T22:56:45.405Z,44.83
2018-02-16T22:59:13.039Z,43.05
2018-02-16T23:01:40.643Z,45.47
2018-02-16T23:04:08.206Z,44.63
2018-02-16T23:06:35.823Z,48.05
2018-02-16T23:09:03.416Z,42.53
2018-02-16T23:11:31.011Z,40.08
2018-02-16T23:13:58.603Z,45.12
2018-02-16T23:16:26.208Z,44.83
2018-02-16T23:18:53.768Z,40.65
2018-02-16T23:21:21.408Z,42.60
2018-02-16T23:23:49.058Z,41.13
2018-02-16T23:26:16.627Z,41.55
2018-02-16T23:28:44.230Z,44.60
2018-02-16T23:31:12.584Z,43.55
2018-02-16T23:33:40.236Z,42.67
2018-02-16T23:36:07.823Z,42.08
2018-02-16T23:38:36.221Z,43.67
2018-02-16T23:41:03.806Z,42.65
2018-02-16T23:43:32.151Z,43.45
2018-02-16T23:45:59.767Z,42.85
2018-02-16T23:48:27.388Z,44.15
2018-02-16T23:50:55.004Z,49.45
2018-02-16T23:53:22.600Z,39.83
2018-02-16T23:55:50.225Z,44.85
2018-02-16T23:58:17.788Z,44.33
